Time;durP1;ratioP1;P1;durP2;ratioP2;P2;SDS_P1;SDS_P2;PMS_P1;PMS_P2;Temp;Humidity;BMP_temperature;BMP_pressure;BME280_temperature;BME280_humidity;BME280_pressure;Samples;Min_cycle;Max_cycle;Signal;HPM_P1;HPM_P2
2021/08/20 00:00:30;;;;;;;7.13;1.48;;;;;;;;;;2616613;54;20031;-61
2021/08/20 00:02:55;;;;;;;1.77;1.40;;;;;;;;;;2616627;54;20026;-61
2021/08/20 00:05:21;;;;;;;1.80;1.42;;;;;;;;;;2615713;54;20384;-61
2021/08/20 00:07:46;;;;;;;1.50;1.10;;;;;;;;;;2616137;54;20022;-60
2021/08/20 00:10:12;;;;;;;2.10;1.45;;;;;;;;;;2616309;54;20030;-61
2021/08/20 00:12:37;;;;;;;2.25;1.55;;;;;;;;;;2616244;54;20011;-61
2021/08/20 00:15:04;;;;;;;2.05;1.42;;;;;;;;;;2616728;39;20697;-62
2021/08/20 00:17:30;;;;;;;2.00;1.35;;;;;;;;;;2616554;54;20110;-62
2021/08/20 00:19:55;;;;;;;2.17;1.40;;;;;;;;;;2616919;54;20019;-61
2021/08/20 00:22:22;;;;;;;2.47;1.80;;;;;;;;;;2616526;54;20015;-62
2021/08/20 00:24:48;;;;;;;2.05;1.38;;;;;;;;;;2616671;54;20057;-61
2021/08/20 00:27:14;;;;;;;2.13;1.55;;;;;;;;;;2616615;54;20061;-62
2021/08/20 00:29:39;;;;;;;2.67;1.70;;;;;;;;;;2616529;54;20473;-62
2021/08/20 00:32:05;;;;;;;2.17;1.45;;;;;;;;;;2616198;54;20026;-61
2021/08/20 00:34:31;;;;;;;1.30;0.93;;;;;;;;;;2616642;54;20069;-62
2021/08/20 00:36:56;;;;;;;3.13;1.58;;;;;;;;;;2616574;54;20484;-62
2021/08/20 00:39:23;;;;;;;1.95;1.38;;;;;;;;;;2616323;54;20015;-62
2021/08/20 00:41:48;;;;;;;2.28;1.50;;;;;;;;;;2616497;54;20010;-63
2021/08/20 00:44:14;;;;;;;1.67;1.17;;;;;;;;;;2616315;54;20018;-60
2021/08/20 00:46:42;;;;;;;2.05;1.35;;;;;;;;;;2616760;54;20015;-61
2021/08/20 00:49:07;;;;;;;2.10;1.50;;;;;;;;;;2616114;54;20030;-61
2021/08/20 00:51:36;;;;;;;2.38;1.60;;;;;;;;;;2616575;54;20018;-61
2021/08/20 00:54:03;;;;;;;1.25;0.90;;;;;;;;;;2616259;54;20080;-61
2021/08/20 00:56:29;;;;;;;1.30;1.00;;;;;;;;;;2616705;54;20011;-60
2021/08/20 00:58:55;;;;;;;2.22;1.58;;;;;;;;;;2616393;54;20061;-60
2021/08/20 01:01:21;;;;;;;1.70;1.27;;;;;;;;;;2616819;39;20357;-61
2021/08/20 01:03:47;;;;;;;11.20;2.35;;;;;;;;;;2616403;54;20062;-61
2021/08/20 01:06:12;;;;;;;1.90;1.38;;;;;;;;;;2616268;54;20023;-61
2021/08/20 01:08:39;;;;;;;2.20;1.45;;;;;;;;;;2616510;54;20023;-62
2021/08/20 01:11:07;;;;;;;2.13;1.45;;;;;;;;;;2616481;39;20388;-61
2021/08/20 01:13:38;;;;;;;3.85;1.92;;;;;;;;;;2616132;54;20030;-62
2021/08/20 01:16:04;;;;;;;2.17;1.55;;;;;;;;;;2616472;54;20030;-61
2021/08/20 01:18:32;;;;;;;2.20;1.65;;;;;;;;;;2616360;54;20053;-62
2021/08/20 01:21:00;;;;;;;2.33;1.42;;;;;;;;;;2616295;54;20030;-61
2021/08/20 01:23:27;;;;;;;2.35;1.50;;;;;;;;;;2616374;54;20031;-62
2021/08/20 01:25:53;;;;;;;2.15;1.52;;;;;;;;;;2616322;54;20017;-62
2021/08/20 01:28:21;;;;;;;2.30;1.65;;;;;;;;;;2616058;54;20031;-62
2021/08/20 01:30:47;;;;;;;2.60;1.85;;;;;;;;;;2616426;54;20015;-62
2021/08/20 01:33:12;;;;;;;2.05;1.42;;;;;;;;;;2616144;54;20118;-62
2021/08/20 01:35:37;;;;;;;2.92;1.83;;;;;;;;;;2616370;54;20042;-62
2021/08/20 01:38:03;;;;;;;2.17;1.42;;;;;;;;;;2615927;54;20027;-62
2021/08/20 01:40:28;;;;;;;2.20;1.40;;;;;;;;;;2616366;54;20018;-61
2021/08/20 01:42:54;;;;;;;3.05;2.15;;;;;;;;;;2615835;54;20054;-61
2021/08/20 01:45:20;;;;;;;2.05;1.40;;;;;;;;;;2616329;54;20022;-61
2021/08/20 01:47:45;;;;;;;3.15;1.75;;;;;;;;;;2616166;54;20022;-61
2021/08/20 01:50:11;;;;;;;2.33;1.67;;;;;;;;;;2616286;54;20033;-61
2021/08/20 01:52:38;;;;;;;2.15;1.63;;;;;;;;;;2616312;54;20003;-61
2021/08/20 01:55:06;;;;;;;2.67;1.85;;;;;;;;;;2615455;54;20026;-62
2021/08/20 01:57:31;;;;;;;1.80;1.38;;;;;;;;;;2616400;54;20049;-60
2021/08/20 01:59:57;;;;;;;2.60;1.65;;;;;;;;;;2616155;54;20014;-61
2021/08/20 02:02:32;;;;;;;2.22;1.30;;;;;;;;;;2616319;39;20385;-61
2021/08/20 02:04:57;;;;;;;3.08;1.88;;;;;;;;;;2614447;54;20030;-61
2021/08/20 02:07:22;;;;;;;2.88;1.77;;;;;;;;;;2616119;39;20361;-61
2021/08/20 02:09:48;;;;;;;2.85;2.10;;;;;;;;;;2616258;54;20027;-61
2021/08/20 02:12:14;;;;;;;2.20;1.60;;;;;;;;;;2616095;54;20053;-62
2021/08/20 02:14:40;;;;;;;2.70;1.88;;;;;;;;;;2615923;54;20034;-63
2021/08/20 02:17:05;;;;;;;2.85;1.85;;;;;;;;;;2616196;54;20022;-63
2021/08/20 02:19:30;;;;;;;1.95;1.35;;;;;;;;;;2616118;54;20017;-64
2021/08/20 02:21:56;;;;;;;2.17;1.42;;;;;;;;;;2616174;54;20010;-65
2021/08/20 02:24:21;;;;;;;3.28;1.73;;;;;;;;;;2615722;54;20026;-65
2021/08/20 02:26:47;;;;;;;3.13;1.75;;;;;;;;;;2616263;47;20121;-65
2021/08/20 02:29:12;;;;;;;3.78;2.20;;;;;;;;;;2616074;54;20065;-63
2021/08/20 02:31:37;;;;;;;2.72;1.90;;;;;;;;;;2616035;54;20142;-65
2021/08/20 02:34:03;;;;;;;2.15;1.55;;;;;;;;;;2615916;54;20006;-64
2021/08/20 02:36:28;;;;;;;3.72;2.05;;;;;;;;;;2616143;54;20062;-64
2021/08/20 02:38:53;;;;;;;2.70;1.63;;;;;;;;;;2616192;54;20049;-64
2021/08/20 02:41:19;;;;;;;1.95;1.35;;;;;;;;;;2616292;54;20465;-64
2021/08/20 02:43:44;;;;;;;2.50;1.67;;;;;;;;;;2616096;54;20034;-64
2021/08/20 02:46:10;;;;;;;3.05;2.17;;;;;;;;;;2615869;54;20023;-63
2021/08/20 02:48:35;;;;;;;2.33;1.70;;;;;;;;;;2616074;54;20003;-64
2021/08/20 02:51:01;;;;;;;2.50;1.67;;;;;;;;;;2616627;39;20306;-63
2021/08/20 02:53:27;;;;;;;2.45;1.65;;;;;;;;;;2616460;39;20361;-63
2021/08/20 02:55:52;;;;;;;2.72;1.77;;;;;;;;;;2615924;54;20735;-64
2021/08/20 02:58:18;;;;;;;3.47;2.13;;;;;;;;;;2615781;54;20074;-63
2021/08/20 03:00:43;;;;;;;3.75;2.03;;;;;;;;;;2616183;54;20022;-63
2021/08/20 03:03:09;;;;;;;2.70;1.80;;;;;;;;;;2614827;54;20921;-64
2021/08/20 03:05:34;;;;;;;5.75;2.00;;;;;;;;;;2615857;54;20023;-63
2021/08/20 03:08:00;;;;;;;3.28;1.92;;;;;;;;;;2615852;39;20369;-63
2021/08/20 03:10:25;;;;;;;2.53;1.70;;;;;;;;;;2616006;54;20110;-63
2021/08/20 03:12:50;;;;;;;4.72;2.47;;;;;;;;;;2615918;54;20026;-63
2021/08/20 03:15:16;;;;;;;3.88;2.33;;;;;;;;;;2615265;54;20018;-63
2021/08/20 03:17:42;;;;;;;2.40;1.77;;;;;;;;;;2615990;54;20025;-63
2021/08/20 03:20:08;;;;;;;3.00;2.17;;;;;;;;;;2615964;54;20022;-63
2021/08/20 03:22:34;;;;;;;2.20;1.60;;;;;;;;;;2615849;54;20034;-63
2021/08/20 03:24:59;;;;;;;4.80;1.80;;;;;;;;;;2616035;54;20015;-63
2021/08/20 03:27:24;;;;;;;2.13;1.33;;;;;;;;;;2616081;54;20011;-63
2021/08/20 03:29:50;;;;;;;2.25;1.58;;;;;;;;;;2616177;47;20015;-63
2021/08/20 03:32:16;;;;;;;2.15;1.40;;;;;;;;;;2615939;39;20369;-64
2021/08/20 03:34:41;;;;;;;4.25;2.08;;;;;;;;;;2616432;54;20011;-64
2021/08/20 03:37:06;;;;;;;5.70;2.22;;;;;;;;;;2616755;54;20038;-64
2021/08/20 03:39:32;;;;;;;2.50;1.58;;;;;;;;;;2616043;54;20022;-64
2021/08/20 03:41:57;;;;;;;2.47;1.80;;;;;;;;;;2616659;54;20090;-64
2021/08/20 03:44:23;;;;;;;1.80;1.50;;;;;;;;;;2616537;54;20007;-64
2021/08/20 03:46:48;;;;;;;4.75;2.25;;;;;;;;;;2616748;54;20481;-64
2021/08/20 03:49:13;;;;;;;3.35;1.92;;;;;;;;;;2615771;54;20022;-64
2021/08/20 03:51:39;;;;;;;2.63;1.85;;;;;;;;;;2616657;54;20015;-64
2021/08/20 03:54:04;;;;;;;3.10;1.95;;;;;;;;;;2616533;54;20019;-64
2021/08/20 03:56:30;;;;;;;3.17;2.03;;;;;;;;;;2616831;54;20014;-64
2021/08/20 03:58:58;;;;;;;2.53;1.85;;;;;;;;;;2616634;54;20178;-64
2021/08/20 04:01:23;;;;;;;3.22;1.92;;;;;;;;;;2616600;54;20461;-64
2021/08/20 04:03:49;;;;;;;3.33;2.20;;;;;;;;;;2615931;54;20050;-61
2021/08/20 04:06:14;;;;;;;3.10;2.17;;;;;;;;;;2615762;47;20019;-63
2021/08/20 04:08:40;;;;;;;2.70;1.88;;;;;;;;;;2616555;54;20011;-63
2021/08/20 04:11:10;;;;;;;3.80;1.88;;;;;;;;;;2616777;54;20505;-63
2021/08/20 04:13:37;;;;;;;2.30;1.60;;;;;;;;;;2616301;54;20022;-63
2021/08/20 04:16:02;;;;;;;2.47;1.70;;;;;;;;;;2616530;54;20015;-63
2021/08/20 04:18:28;;;;;;;3.55;2.00;;;;;;;;;;2616714;54;20030;-63
2021/08/20 04:20:53;;;;;;;3.03;1.98;;;;;;;;;;2616697;54;20018;-63
2021/08/20 04:23:18;;;;;;;3.33;2.30;;;;;;;;;;2616347;54;20065;-63
2021/08/20 04:25:44;;;;;;;2.88;1.90;;;;;;;;;;2616589;54;20053;-63
2021/08/20 04:28:09;;;;;;;2.78;2.03;;;;;;;;;;2616478;47;20015;-63
2021/08/20 04:30:35;;;;;;;2.60;1.77;;;;;;;;;;2616632;47;20953;-64
2021/08/20 04:33:00;;;;;;;3.10;2.20;;;;;;;;;;2616270;54;20046;-64
2021/08/20 04:35:26;;;;;;;3.45;2.15;;;;;;;;;;2616464;54;20018;-63
2021/08/20 04:37:53;;;;;;;2.28;1.52;;;;;;;;;;2616549;54;20133;-63
2021/08/20 04:40:18;;;;;;;2.90;1.95;;;;;;;;;;2616534;54;20113;-63
2021/08/20 04:42:44;;;;;;;2.97;2.28;;;;;;;;;;2616529;54;20054;-64
2021/08/20 04:45:10;;;;;;;3.15;2.20;;;;;;;;;;2615582;47;20481;-63
2021/08/20 04:47:36;;;;;;;4.35;2.50;;;;;;;;;;2616688;54;20015;-63
2021/08/20 04:50:03;;;;;;;2.70;1.90;;;;;;;;;;2616546;54;20026;-64
2021/08/20 04:52:28;;;;;;;2.63;1.88;;;;;;;;;;2616615;54;20019;-64
2021/08/20 04:54:54;;;;;;;3.55;1.70;;;;;;;;;;2616832;39;20743;-62
2021/08/20 04:57:19;;;;;;;2.40;1.85;;;;;;;;;;2615623;54;20106;-64
2021/08/20 04:59:44;;;;;;;2.33;1.73;;;;;;;;;;2616550;54;20025;-63
2021/08/20 05:02:10;;;;;;;3.40;2.45;;;;;;;;;;2616076;47;20026;-64
2021/08/20 05:04:36;;;;;;;4.10;2.42;;;;;;;;;;2616085;54;20543;-64
2021/08/20 05:07:05;;;;;;;2.97;2.30;;;;;;;;;;2616450;54;20011;-62
2021/08/20 05:09:33;;;;;;;2.88;2.13;;;;;;;;;;2615860;54;20049;-64
2021/08/20 05:12:03;;;;;;;3.75;2.63;;;;;;;;;;2616414;54;20027;-64
2021/08/20 05:14:28;;;;;;;3.10;2.13;;;;;;;;;;2616191;47;20022;-63
2021/08/20 05:16:54;;;;;;;2.58;2.03;;;;;;;;;;2616293;54;20021;-63
2021/08/20 05:19:19;;;;;;;3.17;2.17;;;;;;;;;;2616050;47;20026;-63
2021/08/20 05:21:45;;;;;;;2.78;1.92;;;;;;;;;;2616386;54;20158;-63
2021/08/20 05:24:10;;;;;;;3.25;2.28;;;;;;;;;;2616381;54;20011;-63
2021/08/20 05:26:36;;;;;;;3.97;2.50;;;;;;;;;;2616572;54;20011;-63
2021/08/20 05:29:01;;;;;;;3.45;2.40;;;;;;;;;;2616699;39;20365;-63
2021/08/20 05:31:27;;;;;;;4.13;2.78;;;;;;;;;;2615771;54;20007;-63
2021/08/20 05:33:52;;;;;;;2.60;1.90;;;;;;;;;;2615625;54;20682;-63
2021/08/20 05:36:17;;;;;;;2.83;2.13;;;;;;;;;;2615975;54;20086;-62
2021/08/20 05:38:43;;;;;;;5.45;2.85;;;;;;;;;;2616736;39;20589;-63
2021/08/20 05:41:08;;;;;;;3.00;2.50;;;;;;;;;;2616132;54;20055;-63
2021/08/20 05:43:34;;;;;;;3.08;2.53;;;;;;;;;;2616121;54;20018;-63
2021/08/20 05:46:00;;;;;;;3.65;2.80;;;;;;;;;;2616148;54;20022;-63
2021/08/20 05:48:26;;;;;;;3.95;2.67;;;;;;;;;;2616262;54;20014;-63
2021/08/20 05:50:51;;;;;;;3.38;2.05;;;;;;;;;;2615684;54;20023;-63
2021/08/20 05:53:16;;;;;;;3.58;2.85;;;;;;;;;;2616221;54;20010;-63
2021/08/20 05:55:42;;;;;;;3.67;2.72;;;;;;;;;;2616087;54;20043;-63
2021/08/20 05:58:07;;;;;;;3.92;2.35;;;;;;;;;;2615419;54;20027;-63
2021/08/20 06:00:34;;;;;;;3.00;2.15;;;;;;;;;;2616424;31;20448;-62
2021/08/20 06:03:00;;;;;;;4.40;3.03;;;;;;;;;;2615808;47;20014;-67
2021/08/20 06:05:25;;;;;;;4.78;2.38;;;;;;;;;;2615908;39;20373;-66
2021/08/20 06:07:50;;;;;;;4.05;2.85;;;;;;;;;;2616269;54;20014;-66
2021/08/20 06:10:17;;;;;;;3.88;2.40;;;;;;;;;;2616591;39;20369;-66
2021/08/20 06:12:42;;;;;;;3.53;2.38;;;;;;;;;;2615680;54;20033;-67
2021/08/20 06:15:09;;;;;;;3.40;2.30;;;;;;;;;;2616182;54;20014;-67
2021/08/20 06:17:34;;;;;;;3.10;2.40;;;;;;;;;;2616071;54;20800;-67
2021/08/20 06:20:00;;;;;;;3.10;2.50;;;;;;;;;;2615129;39;20457;-67
2021/08/20 06:22:25;;;;;;;5.28;2.72;;;;;;;;;;2614191;54;20064;-67
2021/08/20 06:24:51;;;;;;;5.63;2.88;;;;;;;;;;2615847;54;20102;-67
2021/08/20 06:27:16;;;;;;;2.42;1.85;;;;;;;;;;2615441;54;20484;-67
2021/08/20 06:29:42;;;;;;;3.08;2.30;;;;;;;;;;2616783;31;20437;-67
2021/08/20 06:32:07;;;;;;;2.47;1.85;;;;;;;;;;2615470;54;20026;-67
2021/08/20 06:34:33;;;;;;;3.20;2.20;;;;;;;;;;2616496;39;20386;-67
2021/08/20 06:36:58;;;;;;;2.55;1.83;;;;;;;;;;2616102;54;20033;-68
2021/08/20 06:39:24;;;;;;;3.08;2.10;;;;;;;;;;2615573;54;20023;-67
2021/08/20 06:41:49;;;;;;;2.15;1.70;;;;;;;;;;2615833;54;20026;-67
2021/08/20 06:44:15;;;;;;;3.67;2.58;;;;;;;;;;2616002;54;20114;-67
2021/08/20 06:46:41;;;;;;;2.50;1.90;;;;;;;;;;2616056;54;20453;-67
2021/08/20 06:49:07;;;;;;;2.63;1.98;;;;;;;;;;2616009;39;20372;-65
2021/08/20 06:51:33;;;;;;;2.28;1.70;;;;;;;;;;2616032;54;20035;-66
2021/08/20 06:53:59;;;;;;;3.00;2.20;;;;;;;;;;2615595;47;20014;-66
2021/08/20 06:56:24;;;;;;;3.72;2.92;;;;;;;;;;2615185;39;20685;-66
2021/08/20 06:58:49;;;;;;;3.20;2.50;;;;;;;;;;2615554;54;20521;-65
2021/08/20 07:01:16;;;;;;;3.20;2.28;;;;;;;;;;2615777;54;20010;-65
2021/08/20 07:03:41;;;;;;;1.98;1.45;;;;;;;;;;2615728;54;20050;-65
2021/08/20 07:06:07;;;;;;;3.17;1.85;;;;;;;;;;2615711;54;20010;-65
2021/08/20 07:08:32;;;;;;;2.35;1.75;;;;;;;;;;2615563;54;20701;-65
2021/08/20 07:10:58;;;;;;;2.67;1.88;;;;;;;;;;2615116;54;20014;-66
2021/08/20 07:13:23;;;;;;;2.72;2.05;;;;;;;;;;2615761;54;20504;-67
2021/08/20 07:15:48;;;;;;;3.20;2.22;;;;;;;;;;2615943;54;20018;-67
2021/08/20 07:18:14;;;;;;;3.42;2.15;;;;;;;;;;2615756;54;20003;-66
2021/08/20 07:20:39;;;;;;;3.17;2.25;;;;;;;;;;2615897;54;20041;-66
2021/08/20 07:23:04;;;;;;;3.00;2.20;;;;;;;;;;2615670;47;20082;-66
2021/08/20 07:25:30;;;;;;;2.33;1.73;;;;;;;;;;2615916;51;20041;-66
2021/08/20 07:27:56;;;;;;;2.65;2.03;;;;;;;;;;2616185;39;20610;-67
2021/08/20 07:30:21;;;;;;;2.72;2.05;;;;;;;;;;2615398;54;20014;-66
2021/08/20 07:32:48;;;;;;;3.00;2.10;;;;;;;;;;2615749;47;20113;-66
2021/08/20 07:35:14;;;;;;;2.53;1.92;;;;;;;;;;2615609;54;20021;-67
2021/08/20 07:37:39;;;;;;;3.13;1.92;;;;;;;;;;2615881;54;20022;-67
2021/08/20 07:40:06;;;;;;;2.90;2.15;;;;;;;;;;2615153;39;20528;-68
2021/08/20 07:42:31;;;;;;;2.42;1.83;;;;;;;;;;2616193;39;20368;-67
2021/08/20 07:44:57;;;;;;;3.25;2.00;;;;;;;;;;2615600;54;20018;-66
2021/08/20 07:47:22;;;;;;;2.63;2.00;;;;;;;;;;2615638;54;20026;-66
2021/08/20 07:49:48;;;;;;;2.78;2.28;;;;;;;;;;2615519;54;20050;-66
2021/08/20 07:52:13;;;;;;;4.97;2.22;;;;;;;;;;2615448;54;20015;-66
2021/08/20 07:54:38;;;;;;;3.05;2.47;;;;;;;;;;2615216;54;20015;-66
2021/08/20 07:57:04;;;;;;;2.40;1.90;;;;;;;;;;2615823;54;20014;-66
2021/08/20 07:59:29;;;;;;;3.08;2.33;;;;;;;;;;2615371;46;20129;-66
2021/08/20 08:01:55;;;;;;;3.50;2.30;;;;;;;;;;2615272;39;20602;-66
2021/08/20 08:04:20;;;;;;;2.47;2.15;;;;;;;;;;2615087;54;20015;-66
2021/08/20 08:06:45;;;;;;;2.60;2.13;;;;;;;;;;2614993;54;20078;-66
2021/08/20 08:09:11;;;;;;;2.67;1.77;;;;;;;;;;2615356;54;20018;-66
2021/08/20 08:11:36;;;;;;;2.88;2.33;;;;;;;;;;2615642;39;20476;-66
2021/08/20 08:14:03;;;;;;;2.70;2.05;;;;;;;;;;2614865;54;20010;-67
2021/08/20 08:16:40;;;;;;;3.08;2.35;;;;;;;;;;2615130;54;20033;-66
2021/08/20 08:19:06;;;;;;;2.85;2.25;;;;;;;;;;2615308;54;20109;-67
2021/08/20 08:21:33;;;;;;;3.90;3.40;;;;;;;;;;2616422;54;20014;-66
2021/08/20 08:23:59;;;;;;;3.00;2.22;;;;;;;;;;2615639;54;20010;-66
2021/08/20 08:26:25;;;;;;;3.85;3.05;;;;;;;;;;2616295;54;20092;-66
2021/08/20 08:28:54;;;;;;;3.28;2.92;;;;;;;;;;2616642;54;20485;-67
2021/08/20 08:31:23;;;;;;;3.10;2.58;;;;;;;;;;2616695;54;20009;-66
2021/08/20 08:33:50;;;;;;;2.80;2.40;;;;;;;;;;2616483;54;20022;-66
2021/08/20 08:36:16;;;;;;;3.00;2.28;;;;;;;;;;2616580;54;20263;-67
2021/08/20 08:38:41;;;;;;;3.00;2.67;;;;;;;;;;2616342;54;20002;-67
2021/08/20 08:41:06;;;;;;;3.15;2.42;;;;;;;;;;2616036;54;20037;-65
2021/08/20 08:43:32;;;;;;;3.55;2.53;;;;;;;;;;2614699;54;20034;-66
2021/08/20 08:46:02;;;;;;;2.78;2.35;;;;;;;;;;2616072;39;20388;-66
2021/08/20 08:48:28;;;;;;;3.05;2.45;;;;;;;;;;2615665;54;20034;-67
2021/08/20 08:50:54;;;;;;;7.93;2.58;;;;;;;;;;2615844;54;20014;-65
2021/08/20 08:53:20;;;;;;;2.53;2.05;;;;;;;;;;2615398;54;20541;-66
2021/08/20 08:55:49;;;;;;;3.00;2.60;;;;;;;;;;2616322;54;20017;-65
2021/08/20 08:58:15;;;;;;;3.45;3.00;;;;;;;;;;2615922;54;20018;-65
2021/08/20 09:00:41;;;;;;;2.90;2.50;;;;;;;;;;2615223;54;20011;-65
2021/08/20 09:03:06;;;;;;;2.80;2.33;;;;;;;;;;2615235;54;20018;-65
2021/08/20 09:05:43;;;;;;;3.35;3.05;;;;;;;;;;2616422;54;20015;-65
2021/08/20 09:08:19;;;;;;;3.10;2.67;;;;;;;;;;2616836;39;20165;-65
2021/08/20 09:10:55;;;;;;;2.60;2.20;;;;;;;;;;2616256;54;20022;-66
2021/08/20 09:13:23;;;;;;;3.20;2.33;;;;;;;;;;2616785;39;20542;-66
2021/08/20 09:16:11;;;;;;;3.17;2.88;;;;;;;;;;2616503;54;20018;-66
2021/08/20 09:18:37;;;;;;;2.83;2.50;;;;;;;;;;2616054;54;20026;-65
2021/08/20 09:21:05;;;;;;;3.47;2.90;;;;;;;;;;2616258;54;20018;-66
2021/08/20 09:23:31;;;;;;;3.40;2.47;;;;;;;;;;2616674;39;20434;-66
2021/08/20 09:25:57;;;;;;;2.95;2.65;;;;;;;;;;2616092;54;20023;-65
2021/08/20 09:28:33;;;;;;;3.80;2.47;;;;;;;;;;2616560;39;20387;-65
2021/08/20 09:31:00;;;;;;;2.90;2.58;;;;;;;;;;2615940;54;20491;-67
2021/08/20 09:33:47;;;;;;;4.13;3.13;;;;;;;;;;2615744;54;20059;-67
2021/08/20 09:36:14;;;;;;;2.88;2.47;;;;;;;;;;2616441;39;20459;-67
2021/08/20 09:38:50;;;;;;;2.80;2.35;;;;;;;;;;2615886;54;20015;-67
2021/08/20 09:41:24;;;;;;;3.05;2.47;;;;;;;;;;2616038;51;20018;-67
2021/08/20 09:43:55;;;;;;;3.28;2.50;;;;;;;;;;2615850;47;20050;-66
2021/08/20 09:46:21;;;;;;;3.00;2.67;;;;;;;;;;2615911;54;20548;-66
2021/08/20 09:49:00;;;;;;;3.00;2.53;;;;;;;;;;2615881;54;20042;-65
2021/08/20 09:51:36;;;;;;;3.15;2.85;;;;;;;;;;2615842;54;20023;-66
2021/08/20 09:54:08;;;;;;;3.22;2.45;;;;;;;;;;2615692;54;20134;-66
2021/08/20 09:56:35;;;;;;;3.13;2.58;;;;;;;;;;2614693;54;20029;-66
2021/08/20 09:59:02;;;;;;;3.55;2.53;;;;;;;;;;2615792;54;20037;-66
2021/08/20 10:01:29;;;;;;;3.78;3.15;;;;;;;;;;2615565;54;20053;-66
2021/08/20 10:03:59;;;;;;;3.05;2.58;;;;;;;;;;2615551;54;20017;-66
2021/08/20 10:06:30;;;;;;;;;;;;;;;;;;2615938;54;20026;-66
2021/08/20 10:08:57;;;;;;;;;;;;;;;;;;2615794;54;19949;-66
2021/08/20 10:11:23;;;;;;;2.70;2.20;;;;;;;;;;2615164;54;19977;-66
2021/08/20 10:13:48;;;;;;;3.13;2.78;;;;;;;;;;2615330;54;20023;-65
2021/08/20 10:16:14;;;;;;;2.88;2.28;;;;;;;;;;2615972;54;20110;-65
2021/08/20 10:18:41;;;;;;;2.80;2.38;;;;;;;;;;2615738;54;20449;-65
2021/08/20 10:21:11;;;;;;;2.92;2.45;;;;;;;;;;2616095;54;20516;-65
2021/08/20 10:23:36;;;;;;;3.13;2.70;;;;;;;;;;2615597;54;20022;-65
2021/08/20 10:26:03;;;;;;;3.33;3.03;;;;;;;;;;2616034;54;20022;-66
2021/08/20 10:28:29;;;;;;;3.00;2.70;;;;;;;;;;2615844;54;20014;-66
2021/08/20 10:30:55;;;;;;;3.17;2.88;;;;;;;;;;2615806;54;20612;-66
2021/08/20 10:33:34;;;;;;;4.03;3.15;;;;;;;;;;2615653;47;20029;-65
2021/08/20 10:36:02;;;;;;;2.83;2.43;;;;;;;;;;2615784;54;20034;-66
2021/08/20 10:38:34;;;;;;;3.50;3.20;;;;;;;;;;2615369;54;20114;-66
2021/08/20 10:41:12;;;;;;;3.38;3.08;;;;;;;;;;2615926;54;20014;-65
2021/08/20 10:44:05;;;;;;;4.15;3.58;;;;;;;;;;2615643;54;20027;-66
2021/08/20 10:46:36;;;;;;;3.50;3.20;;;;;;;;;;2616175;39;20571;-66
2021/08/20 10:49:11;;;;;;;3.00;2.70;;;;;;;;;;2615557;54;20014;-66
2021/08/20 10:51:49;;;;;;;3.55;3.25;;;;;;;;;;2615990;54;20018;-67
2021/08/20 10:54:24;;;;;;;3.55;3.25;;;;;;;;;;2615862;54;20010;-66
2021/08/20 10:56:50;;;;;;;3.00;2.70;;;;;;;;;;2616126;47;20003;-66
2021/08/20 10:59:43;;;;;;;3.20;2.80;;;;;;;;;;2615602;54;20030;-66
2021/08/20 11:02:24;;;;;;;3.13;2.83;;;;;;;;;;2615748;54;20041;-65
2021/08/20 11:04:56;;;;;;;3.45;3.15;;;;;;;;;;2615861;54;20026;-66
2021/08/20 11:07:43;;;;;;;3.45;3.15;;;;;;;;;;2615250;47;20133;-66
2021/08/20 11:10:08;;;;;;;4.20;3.35;;;;;;;;;;2614011;54;20572;-66
2021/08/20 11:12:46;;;;;;;3.33;2.97;;;;;;;;;;2615912;54;20014;-65
2021/08/20 11:15:21;;;;;;;3.60;3.30;;;;;;;;;;2616055;39;20353;-66
2021/08/20 11:17:57;;;;;;;3.10;2.80;;;;;;;;;;2615515;54;20014;-65
2021/08/20 11:20:53;;;;;;;2.95;2.50;;;;;;;;;;2615661;54;20022;-66
2021/08/20 11:23:18;;;;;;;4.28;2.88;;;;;;;;;;2615561;54;20034;-66
2021/08/20 11:25:58;;;;;;;3.72;3.13;;;;;;;;;;2616033;54;20019;-65
2021/08/20 11:28:44;;;;;;;;;;;;;;;;;;2615454;54;20021;-66
2021/08/20 11:31:12;;;;;;;3.28;2.10;;;;;;;;;;2615714;54;20381;-66
2021/08/20 11:33:45;;;;;;;3.05;2.75;;;;;;;;;;2615655;54;20015;-65
2021/08/20 11:36:18;;;;;;;3.40;2.90;;;;;;;;;;2614015;54;20022;-65
2021/08/20 11:38:46;;;;;;;4.18;3.78;;;;;;;;;;2615756;31;20409;-64
2021/08/20 11:41:23;;;;;;;4.60;4.20;;;;;;;;;;2615560;54;20017;-65
2021/08/20 11:43:52;;;;;;;3.92;3.53;;;;;;;;;;2615627;54;20516;-67
2021/08/20 11:46:18;;;;;;;3.83;3.53;;;;;;;;;;2615683;47;20025;-65
2021/08/20 11:48:49;;;;;;;4.18;3.78;;;;;;;;;;2615803;54;20015;-67
2021/08/20 11:51:24;;;;;;;4.60;4.20;;;;;;;;;;2615806;54;20018;-66
2021/08/20 11:53:49;;;;;;;4.38;4.00;;;;;;;;;;2615320;54;20061;-66
2021/08/20 11:56:16;;;;;;;4.03;3.63;;;;;;;;;;2616130;54;20014;-65
2021/08/20 11:58:43;;;;;;;3.55;3.25;;;;;;;;;;2616509;54;20010;-66
2021/08/20 12:01:37;;;;;;;4.38;3.58;;;;;;;;;;2616178;54;20057;-65
2021/08/20 12:04:03;;;;;;;4.03;3.63;;;;;;;;;;2616265;54;20026;-65
2021/08/20 12:06:29;;;;;;;3.65;3.35;;;;;;;;;;2616623;54;20501;-66
2021/08/20 12:08:58;;;;;;;3.75;3.45;;;;;;;;;;2617097;39;20615;-65
2021/08/20 12:11:29;;;;;;;3.55;3.25;;;;;;;;;;2616663;54;20111;-65
2021/08/20 12:13:56;;;;;;;3.97;3.67;;;;;;;;;;2616632;54;20011;-65
2021/08/20 12:16:35;;;;;;;3.80;3.50;;;;;;;;;;2616183;54;20010;-66
2021/08/20 12:19:11;;;;;;;3.70;3.40;;;;;;;;;;2615895;54;20047;-66
2021/08/20 12:21:36;;;;;;;3.90;3.60;;;;;;;;;;2616444;54;20027;-65
2021/08/20 12:24:05;;;;;;;3.63;3.33;;;;;;;;;;2616636;54;20917;-65
2021/08/20 12:26:31;;;;;;;4.35;3.95;;;;;;;;;;2616399;54;20031;-65
2021/08/20 12:28:56;;;;;;;3.20;2.90;;;;;;;;;;2615937;54;20011;-65
2021/08/20 12:31:27;;;;;;;3.67;3.38;;;;;;;;;;2615756;54;20018;-66
2021/08/20 12:34:04;;;;;;;3.28;2.97;;;;;;;;;;2615373;54;20023;-65
2021/08/20 12:36:30;;;;;;;4.07;3.50;;;;;;;;;;2616552;54;20017;-64
2021/08/20 12:39:12;;;;;;;3.53;3.22;;;;;;;;;;2616470;54;20011;-64
2021/08/20 12:41:39;;;;;;;3.85;2.78;;;;;;;;;;2613988;54;20564;-65
2021/08/20 12:44:09;;;;;;;3.75;3.45;;;;;;;;;;2614448;54;20014;-65
2021/08/20 12:46:39;;;;;;;4.03;3.72;;;;;;;;;;2615309;54;20053;-65
2021/08/20 12:49:05;;;;;;;;;;;;;;;;;;2615644;54;20018;-64
2021/08/20 12:51:32;;;;;;;3.28;2.97;;;;;;;;;;2614942;54;19953;-65
2021/08/20 12:54:14;;;;;;;3.08;2.70;;;;;;;;;;2615169;54;20513;-64
2021/08/20 12:56:41;;;;;;;5.05;3.42;;;;;;;;;;2616437;47;20022;-65
2021/08/20 12:59:09;;;;;;;2.70;2.40;;;;;;;;;;2616208;54;20006;-65
2021/08/20 13:01:37;;;;;;;2.80;2.47;;;;;;;;;;2616333;54;20015;-65
2021/08/20 13:04:03;;;;;;;2.90;2.60;;;;;;;;;;2616279;54;20015;-65
2021/08/20 13:06:29;;;;;;;2.97;2.67;;;;;;;;;;2616342;54;20018;-64
2021/08/20 13:08:54;;;;;;;2.92;2.42;;;;;;;;;;2616682;54;20038;-65
2021/08/20 13:11:22;;;;;;;2.55;1.88;;;;;;;;;;2615821;54;20034;-65
2021/08/20 13:13:48;;;;;;;2.60;2.13;;;;;;;;;;2616359;54;20049;-66
2021/08/20 13:16:14;;;;;;;3.53;2.90;;;;;;;;;;2616475;54;20046;-65
2021/08/20 13:18:41;;;;;;;2.83;2.50;;;;;;;;;;2616288;54;20026;-64
2021/08/20 13:21:06;;;;;;;3.10;2.60;;;;;;;;;;2616595;54;20535;-66
2021/08/20 13:23:33;;;;;;;2.90;2.60;;;;;;;;;;2616155;54;20022;-66
2021/08/20 13:26:00;;;;;;;3.00;2.53;;;;;;;;;;2616423;54;20019;-66
2021/08/20 13:28:26;;;;;;;2.90;2.50;;;;;;;;;;2616357;54;20010;-66
2021/08/20 13:30:51;;;;;;;3.15;2.70;;;;;;;;;;2615940;54;20018;-66
2021/08/20 13:33:16;;;;;;;2.90;2.58;;;;;;;;;;2616198;54;20023;-66
2021/08/20 13:35:42;;;;;;;3.28;2.97;;;;;;;;;;2616080;54;20098;-67
2021/08/20 13:38:08;;;;;;;3.75;2.42;;;;;;;;;;2616444;46;20057;-65
2021/08/20 13:40:35;;;;;;;2.65;2.30;;;;;;;;;;2616481;39;20482;-65
2021/08/20 13:43:11;;;;;;;3.03;2.53;;;;;;;;;;2616120;54;20022;-66
2021/08/20 13:45:45;;;;;;;3.05;2.75;;;;;;;;;;2615618;54;20019;-66
2021/08/20 13:48:11;;;;;;;3.30;2.40;;;;;;;;;;2616617;39;20496;-66
2021/08/20 13:50:37;;;;;;;2.83;2.53;;;;;;;;;;2616282;54;20011;-66
2021/08/20 13:53:04;;;;;;;3.70;3.40;;;;;;;;;;2616297;39;20334;-66
2021/08/20 13:55:29;;;;;;;3.03;2.60;;;;;;;;;;2616001;54;20114;-65
2021/08/20 13:57:57;;;;;;;2.92;2.42;;;;;;;;;;2616212;54;20018;-65
2021/08/20 14:00:22;;;;;;;2.83;2.53;;;;;;;;;;2616205;54;20034;-65
2021/08/20 14:02:49;;;;;;;3.35;3.05;;;;;;;;;;2616199;54;20030;-65
2021/08/20 14:05:14;;;;;;;3.00;2.70;;;;;;;;;;2616085;54;20030;-66
2021/08/20 14:07:40;;;;;;;3.25;2.92;;;;;;;;;;2616339;51;20125;-65
2021/08/20 14:10:06;;;;;;;3.20;2.85;;;;;;;;;;2615966;54;20023;-66
2021/08/20 14:12:31;;;;;;;2.85;2.55;;;;;;;;;;2616092;39;20460;-66
2021/08/20 14:14:57;;;;;;;2.70;2.20;;;;;;;;;;2616190;54;20022;-66
2021/08/20 14:17:22;;;;;;;2.72;2.42;;;;;;;;;;2615911;54;20019;-66
2021/08/20 14:19:48;;;;;;;3.00;2.70;;;;;;;;;;2615949;54;20030;-65
2021/08/20 14:22:13;;;;;;;2.95;2.50;;;;;;;;;;2615959;54;20119;-66
2021/08/20 14:24:38;;;;;;;3.38;3.03;;;;;;;;;;2615927;54;20011;-66
2021/08/20 14:27:04;;;;;;;3.03;2.17;;;;;;;;;;2616257;54;20021;-65
2021/08/20 14:29:29;;;;;;;2.97;2.67;;;;;;;;;;2615782;54;20049;-65
2021/08/20 14:31:56;;;;;;;2.92;2.63;;;;;;;;;;2616360;54;20062;-66
2021/08/20 14:34:21;;;;;;;3.00;2.70;;;;;;;;;;2616340;39;20390;-66
2021/08/20 14:36:47;;;;;;;2.83;2.45;;;;;;;;;;2616258;54;20041;-65
2021/08/20 14:39:12;;;;;;;2.92;2.47;;;;;;;;;;2615282;54;20026;-66
2021/08/20 14:41:38;;;;;;;3.03;2.72;;;;;;;;;;2615697;54;20031;-66
2021/08/20 14:44:04;;;;;;;3.25;2.78;;;;;;;;;;2615699;54;20025;-66